Time;durP1;ratioP1;P1;durP2;ratioP2;P2;SDS_P1;SDS_P2;PMS_P1;PMS_P2;Temp;Humidity;BMP_temperature;BMP_pressure;BME280_temperature;BME280_humidity;BME280_pressure;Samples;Min_cycle;Max_cycle;Signal;HPM_P1;HPM_P2
2022/01/03 00:05:10;;;;;;;20.02;2.63;;;11.90;99.90;;;;;;5035965;28;20568;-88
2022/01/03 00:11:17;;;;;;;14.93;3.03;;;11.90;99.90;;;;;;5036117;28;20488;-88
2022/01/03 00:13:45;;;;;;;15.27;3.55;;;11.90;99.90;;;;;;5035458;28;20033;-88
2022/01/03 00:16:11;;;;;;;20.08;3.50;;;11.90;99.90;;;;;;5035579;28;20100;-88
2022/01/03 00:18:37;;;;;;;25.35;3.30;;;11.90;99.90;;;;;;5018319;28;20496;-88
2022/01/03 00:21:11;;;;;;;25.92;3.35;;;11.90;99.90;;;;;;5018406;28;20462;-89
2022/01/03 00:24:10;;;;;;;20.85;3.70;;;11.90;99.90;;;;;;4975998;28;20035;-88
2022/01/03 00:30:00;;;;;;;19.88;3.10;;;11.90;99.90;;;;;;4972883;28;20030;-88
2022/01/03 00:32:28;;;;;;;24.95;4.10;;;11.90;99.90;;;;;;4956743;28;20042;-88
2022/01/03 00:35:20;;;;;;;21.63;3.90;;;11.90;99.90;;;;;;5017891;28;20500;-87
2022/01/03 00:37:46;;;;;;;23.02;3.47;;;11.90;99.90;;;;;;5035560;28;20053;-88
2022/01/03 00:40:14;;;;;;;22.23;3.47;;;11.80;99.90;;;;;;5001215;28;20076;-88
2022/01/03 00:42:41;;;;;;;22.38;3.80;;;11.80;99.90;;;;;;5017541;28;20112;-88
2022/01/03 00:45:10;;;;;;;18.92;3.15;;;11.80;99.90;;;;;;5036084;28;20029;-88
2022/01/03 00:51:30;;;;;;;25.60;5.43;;;11.80;99.90;;;;;;5035272;28;20028;-88
2022/01/03 00:57:44;;;;;;;23.70;4.18;;;11.80;99.90;;;;;;5035157;28;20037;-88
2022/01/03 01:03:55;;;;;;;22.25;4.50;;;11.80;99.90;;;;;;5034831;28;20552;-88
2022/01/03 01:06:23;;;;;;;24.92;4.35;;;11.80;99.90;;;;;;5034363;28;20112;-88
2022/01/03 01:09:09;;;;;;;22.92;3.72;;;11.80;99.90;;;;;;5017860;28;20433;-88
2022/01/03 01:11:47;;;;;;;17.00;3.92;;;11.80;99.90;;;;;;5017740;28;20032;-88
2022/01/03 01:14:16;;;;;;;26.48;4.30;;;11.80;99.90;;;;;;5000718;28;20041;-88
2022/01/03 01:20:09;;;;;;;24.95;4.15;;;11.80;99.90;;;;;;5034822;28;20029;-88
2022/01/03 01:22:36;;;;;;;19.30;3.20;;;11.80;99.90;;;;;;5017042;28;20051;-87
2022/01/03 01:28:10;;;;;;;26.90;4.95;;;11.70;99.90;;;;;;4974530;28;20067;-88
2022/01/03 01:45:07;;;;;;;25.52;5.32;;;11.70;99.90;;;;;;5034325;28;20048;-87
2022/01/03 01:51:18;;;;;;;19.85;3.75;;;11.60;99.90;;;;;;5034338;28;20397;-87
2022/01/03 01:53:50;;;;;;;23.20;5.05;;;11.60;99.90;;;;;;5016700;28;20480;-88
2022/01/03 01:56:38;;;;;;;23.60;4.13;;;11.60;99.90;;;;;;5017095;28;20030;-88
2022/01/03 02:02:29;;;;;;;18.63;3.70;;;11.60;99.90;;;;;;5017605;28;20049;-87
2022/01/03 02:08:43;;;;;;;28.67;4.60;;;11.60;99.90;;;;;;4998545;28;20084;-88
2022/01/03 02:14:37;;;;;;;21.48;3.88;;;11.60;99.90;;;;;;4983859;28;20030;-87
2022/01/03 02:20:46;;;;;;;27.95;5.45;;;11.60;99.90;;;;;;4977665;28;20411;-88
2022/01/03 02:23:12;;;;;;;25.35;4.75;;;11.60;99.90;;;;;;4976999;28;20069;-87
2022/01/03 02:25:37;;;;;;;32.05;4.97;;;11.60;99.90;;;;;;4945106;28;20066;-88
2022/01/03 02:28:10;;;;;;;30.52;4.40;;;11.60;99.90;;;;;;4961025;28;20039;-88
2022/01/03 02:34:08;;;;;;;23.58;3.88;;;11.60;99.90;;;;;;4976921;28;20025;-88
2022/01/03 02:40:10;;;;;;;25.65;3.65;;;11.60;99.90;;;;;;4957604;29;20046;-87
2022/01/03 02:42:36;;;;;;;26.77;4.47;;;11.50;99.90;;;;;;4941871;29;20514;-88
2022/01/03 02:45:15;;;;;;;21.52;4.13;;;11.50;99.90;;;;;;4993706;28;20042;-88
2022/01/03 02:47:45;;;;;;;23.13;4.32;;;11.60;99.90;;;;;;5000946;28;20033;-87
2022/01/03 02:50:11;;;;;;;24.10;4.00;;;11.50;99.90;;;;;;5017885;28;20033;-87
2022/01/03 02:56:33;;;;;;;19.10;2.70;;;11.60;99.90;;;;;;5034499;28;20022;-87
2022/01/03 02:59:01;;;;;;;26.13;4.15;;;11.50;99.90;;;;;;5000981;28;20026;-87
2022/01/03 03:01:26;;;;;;;25.75;4.75;;;11.60;99.90;;;;;;5000324;28;20105;-87
2022/01/03 03:03:52;;;;;;;21.23;3.60;;;11.50;99.90;;;;;;4983806;28;20026;-87
2022/01/03 03:06:18;;;;;;;21.83;3.88;;;11.50;99.90;;;;;;4984432;28;20097;-87
2022/01/03 03:09:28;;;;;;;25.73;4.50;;;11.50;99.90;;;;;;4999294;28;20026;-88
2022/01/03 03:15:40;;;;;;;22.10;3.63;;;11.50;99.90;;;;;;5017251;28;20033;-87
2022/01/03 03:21:39;;;;;;;21.20;3.53;;;11.50;99.90;;;;;;5017258;28;20072;-87
2022/01/03 03:27:27;;;;;;;20.58;4.25;;;11.40;99.90;;;;;;5016895;28;20061;-87
2022/01/03 03:33:22;;;;;;;25.10;4.47;;;11.40;99.90;;;;;;5016852;28;20425;-87
2022/01/03 03:35:50;;;;;;;19.17;4.03;;;11.40;99.90;;;;;;5016796;28;20030;-88
2022/01/03 03:38:16;;;;;;;21.48;3.50;;;11.40;99.90;;;;;;5003986;28;20045;-87
2022/01/03 03:44:10;;;;;;;20.00;3.60;;;11.40;99.90;;;;;;5036324;28;20492;-87
2022/01/03 03:46:36;;;;;;;28.13;5.40;;;11.40;99.90;;;;;;5018753;28;20037;-88
2022/01/03 03:49:02;;;;;;;18.35;4.30;;;11.40;99.90;;;;;;4986217;28;20037;-88
2022/01/03 03:55:02;;;;;;;26.05;4.43;;;11.40;99.90;;;;;;5036120;28;20033;-88
2022/01/03 04:01:00;;;;;;;22.20;3.70;;;11.30;99.90;;;;;;5036140;28;20024;-87
2022/01/03 04:06:48;;;;;;;23.42;3.95;;;11.30;99.90;;;;;;5036007;28;20036;-87
2022/01/03 04:09:14;;;;;;;35.08;5.97;;;11.30;99.90;;;;;;5002222;28;20033;-88
2022/01/03 04:11:40;;;;;;;28.05;4.00;;;11.30;99.90;;;;;;5018520;28;20018;-87
2022/01/03 04:14:06;;;;;;;22.60;4.07;;;11.30;99.90;;;;;;5018043;28;20022;-87
2022/01/03 04:16:32;;;;;;;23.08;4.78;;;11.30;99.90;;;;;;5035238;28;20084;-87
2022/01/03 04:19:24;;;;;;;27.10;4.60;;;11.30;99.90;;;;;;5018373;28;20025;-88
2022/01/03 04:21:50;;;;;;;22.50;4.50;;;11.30;99.90;;;;;;5018027;28;20454;-87
2022/01/03 04:24:15;;;;;;;22.42;3.97;;;11.30;99.90;;;;;;5001656;28;20025;-88
2022/01/03 04:27:19;;;;;;;23.98;4.95;;;11.30;99.90;;;;;;5017770;28;20041;-87
2022/01/03 04:29:45;;;;;;;25.33;4.15;;;11.30;99.90;;;;;;5035879;28;20025;-88
2022/01/03 04:32:10;;;;;;;26.98;5.03;;;11.40;99.90;;;;;;5035655;28;20048;-87
2022/01/03 04:34:36;;;;;;;24.23;4.93;;;11.40;99.90;;;;;;5017892;28;20040;-87
2022/01/03 04:37:02;;;;;;;24.33;4.35;;;11.40;99.90;;;;;;5001935;28;20045;-87
2022/01/03 04:42:51;;;;;;;29.88;4.72;;;11.40;99.90;;;;;;5015565;28;20028;-87
2022/01/03 04:48:42;;;;;;;23.90;4.57;;;11.40;99.90;;;;;;5015449;28;20433;-88
2022/01/03 04:54:30;;;;;;;21.05;4.38;;;11.40;99.90;;;;;;5015498;28;20036;-88
2022/01/03 05:00:21;;;;;;;26.30;4.20;;;11.40;99.90;;;;;;5015146;28;20145;-87
2022/01/03 05:02:47;;;;;;;26.23;4.80;;;11.40;99.90;;;;;;4981421;28;20038;-87
2022/01/03 05:05:13;;;;;;;25.30;3.75;;;11.40;99.90;;;;;;4998137;28;20038;-87
2022/01/03 05:07:39;;;;;;;30.65;4.72;;;11.40;99.90;;;;;;4962221;28;20383;-87
2022/01/03 05:10:16;;;;;;;19.27;4.22;;;11.40;99.90;;;;;;4964500;28;20037;-87
2022/01/03 05:16:22;;;;;;;28.00;5.35;;;11.50;99.90;;;;;;5014991;28;20100;-88
2022/01/03 05:22:20;;;;;;;16.95;3.90;;;11.50;99.90;;;;;;5015125;28;20067;-88
2022/01/03 05:28:16;;;;;;;30.80;4.70;;;11.40;99.90;;;;;;5014616;28;20020;-87
2022/01/03 05:34:05;;;;;;;28.55;4.47;;;11.40;99.90;;;;;;5015089;28;20029;-87
2022/01/03 05:40:32;;;;;;;26.55;4.47;;;11.40;99.90;;;;;;5034681;28;20052;-87
2022/01/03 05:46:26;;;;;;;33.95;6.32;;;11.40;99.90;;;;;;5055908;28;20048;-87
2022/01/03 05:52:14;;;;;;;22.08;3.97;;;11.40;99.90;;;;;;5057623;28;20014;-87
2022/01/03 05:54:40;;;;;;;26.25;4.22;;;11.50;99.90;;;;;;5032926;28;20033;-88
2022/01/03 05:57:06;;;;;;;24.67;4.35;;;11.40;99.90;;;;;;5006128;28;20025;-88
2022/01/03 05:59:33;;;;;;;17.77;4.40;;;11.40;99.90;;;;;;5001207;28;20481;-87
2022/01/03 06:01:58;;;;;;;26.75;3.95;;;11.40;99.90;;;;;;5000728;28;20074;-87
2022/01/03 06:04:36;;;;;;;25.33;4.32;;;11.40;99.90;;;;;;5016424;28;20376;-87
2022/01/03 06:07:07;;;;;;;25.45;4.95;;;11.50;99.90;;;;;;5001682;28;20041;-87
2022/01/03 06:09:37;;;;;;;28.27;4.95;;;11.40;99.90;;;;;;5016376;28;20041;-87
2022/01/03 06:12:03;;;;;;;30.33;5.32;;;11.40;99.90;;;;;;5016204;28;20095;-87
2022/01/03 06:14:32;;;;;;;25.98;3.80;;;11.50;99.90;;;;;;5016182;28;20053;-87
2022/01/03 06:16:58;;;;;;;19.70;3.65;;;11.50;99.90;;;;;;5000836;28;20442;-87
2022/01/03 06:19:23;;;;;;;20.23;4.28;;;11.50;99.90;;;;;;5012518;28;20025;-87
2022/01/03 06:21:49;;;;;;;25.98;4.22;;;11.50;99.90;;;;;;5014252;28;20029;-87
2022/01/03 06:24:19;;;;;;;22.20;4.35;;;11.40;99.90;;;;;;5014494;28;20018;-88
2022/01/03 06:26:45;;;;;;;25.83;3.90;;;11.40;99.90;;;;;;5015772;28;20042;-85
2022/01/03 06:29:16;;;;;;;22.75;4.78;;;11.40;99.90;;;;;;5013093;28;20389;-89
2022/01/03 06:31:42;;;;;;;25.15;5.10;;;11.40;99.90;;;;;;4996695;28;20489;-89
2022/01/03 06:34:08;;;;;;;24.58;4.88;;;11.40;99.90;;;;;;4995935;28;20022;-88
2022/01/03 06:36:34;;;;;;;23.45;4.18;;;11.50;99.90;;;;;;5012717;28;20034;-87
2022/01/03 06:39:00;;;;;;;33.60;5.13;;;11.40;99.90;;;;;;4995511;28;20038;-87
2022/01/03 06:41:44;;;;;;;23.48;4.10;;;11.50;99.90;;;;;;5013355;28;20378;-89
2022/01/03 06:44:10;;;;;;;36.95;5.03;;;11.40;99.90;;;;;;4996176;28;20073;-88
2022/01/03 06:46:36;;;;;;;22.23;4.53;;;11.40;99.90;;;;;;5013346;28;20048;-87
2022/01/03 06:49:06;;;;;;;26.08;4.78;;;11.50;99.90;;;;;;4996333;28;20120;-87
2022/01/03 06:51:34;;;;;;;20.70;4.13;;;11.50;99.90;;;;;;4998936;28;20030;-88
2022/01/03 06:54:04;;;;;;;21.30;4.07;;;11.50;99.90;;;;;;5017592;28;20111;-88
2022/01/03 06:56:30;;;;;;;21.55;3.80;;;11.50;99.90;;;;;;5000540;28;20443;-88
2022/01/03 07:02:21;;;;;;;19.65;3.55;;;11.50;99.90;;;;;;5035170;28;20033;-86
2022/01/03 07:04:47;;;;;;;18.83;4.10;;;11.50;99.90;;;;;;5019005;28;20040;-86
2022/01/03 07:07:13;;;;;;;25.80;5.38;;;11.50;99.90;;;;;;5004404;28;20065;-87
2022/01/03 07:09:39;;;;;;;19.83;3.40;;;11.50;99.90;;;;;;5017048;28;20077;-87
2022/01/03 07:12:06;;;;;;;25.02;4.90;;;11.50;99.90;;;;;;4999969;28;20117;-88
2022/01/03 07:21:00;;;;;;;25.63;4.55;;;11.50;99.90;;;;;;5017174;28;20493;-88
2022/01/03 07:23:40;;;;;;;20.85;4.28;;;11.50;99.90;;;;;;5015689;28;20030;-88
2022/01/03 07:26:06;;;;;;;21.85;3.78;;;11.60;99.90;;;;;;5015862;28;20026;-88
2022/01/03 07:28:32;;;;;;;24.95;3.95;;;11.50;99.90;;;;;;5016636;28;20101;-88
2022/01/03 07:30:57;;;;;;;19.05;4.47;;;11.50;99.90;;;;;;4999716;28;20025;-88
2022/01/03 07:33:26;;;;;;;25.92;4.47;;;11.50;99.90;;;;;;5016194;28;20034;-87
2022/01/03 07:42:49;;;;;;;25.42;3.70;;;11.50;99.90;;;;;;4997319;28;20148;-88
2022/01/03 07:45:28;;;;;;;26.25;4.07;;;11.50;99.90;;;;;;4996651;28;20030;-88
2022/01/03 07:58:37;;;;;;;21.65;4.25;;;11.50;99.90;;;;;;4997410;28;20081;-88
2022/01/03 08:01:04;;;;;;;25.10;3.85;;;11.50;99.90;;;;;;4996562;28;20053;-88
2022/01/03 08:03:32;;;;;;;18.90;4.25;;;11.50;99.90;;;;;;4995526;28;20081;-86
2022/01/03 08:05:57;;;;;;;21.98;4.10;;;11.50;99.90;;;;;;4979273;28;20069;-87
2022/01/03 08:08:24;;;;;;;21.08;3.97;;;11.50;99.90;;;;;;4979289;28;20038;-87
2022/01/03 08:10:49;;;;;;;27.15;4.15;;;11.50;99.90;;;;;;4995193;28;20030;-88
2022/01/03 08:13:15;;;;;;;15.10;3.05;;;11.50;99.90;;;;;;4995426;28;20030;-88
2022/01/03 08:15:42;;;;;;;27.80;4.57;;;11.50;99.90;;;;;;5011045;28;20433;-89
2022/01/03 08:18:26;;;;;;;21.65;3.65;;;11.50;99.90;;;;;;4997873;28;20542;-87
2022/01/03 08:20:53;;;;;;;20.33;3.75;;;11.50;99.90;;;;;;4995476;28;20050;-88
2022/01/03 08:23:19;;;;;;;19.55;3.90;;;11.50;99.90;;;;;;4995748;28;20072;-87
2022/01/03 08:25:45;;;;;;;18.27;3.47;;;11.50;99.90;;;;;;4979102;28;20360;-87
2022/01/03 08:28:14;;;;;;;18.98;3.95;;;11.40;99.90;;;;;;4995375;28;20049;-87
2022/01/03 08:30:40;;;;;;;22.02;4.63;;;11.50;99.90;;;;;;4979919;28;20030;-87
2022/01/03 08:33:06;;;;;;;19.98;3.78;;;11.50;99.90;;;;;;4995146;28;20042;-86
2022/01/03 08:35:32;;;;;;;17.23;3.47;;;11.50;99.90;;;;;;4978694;28;20034;-87
2022/01/03 08:37:59;;;;;;;23.98;4.03;;;11.50;99.90;;;;;;4995022;28;20470;-87
2022/01/03 08:41:03;;;;;;;21.92;4.00;;;11.50;99.90;;;;;;4996872;28;20045;-88
2022/01/03 08:43:29;;;;;;;22.17;4.15;;;11.50;99.90;;;;;;5014867;28;20021;-88
2022/01/03 08:45:55;;;;;;;25.13;4.30;;;11.50;99.90;;;;;;4998498;28;20037;-88
2022/01/03 08:48:21;;;;;;;15.05;3.42;;;11.50;99.90;;;;;;5014431;28;20108;-88
2022/01/03 08:50:46;;;;;;;17.75;3.47;;;11.50;99.90;;;;;;5014826;28;20474;-89
2022/01/03 08:53:50;;;;;;;18.65;3.75;;;11.50;99.90;;;;;;5018245;28;20044;-88
2022/01/03 08:56:15;;;;;;;19.17;3.80;;;11.50;99.90;;;;;;5018171;28;20121;-89
2022/01/03 08:58:41;;;;;;;21.55;4.35;;;11.50;99.90;;;;;;5018182;28;20041;-88
2022/01/03 09:01:06;;;;;;;20.02;3.70;;;11.50;99.90;;;;;;5017660;28;20029;-87
2022/01/03 09:03:32;;;;;;;17.88;3.63;;;11.50;99.90;;;;;;5009468;28;20029;-88
2022/01/03 09:05:58;;;;;;;17.05;3.63;;;11.50;99.90;;;;;;4997554;28;20033;-87
2022/01/03 09:08:24;;;;;;;22.27;4.13;;;11.50;99.90;;;;;;5016544;28;20033;-87
2022/01/03 09:10:50;;;;;;;19.50;4.00;;;11.50;99.90;;;;;;5016637;28;20163;-87
2022/01/03 09:13:17;;;;;;;19.90;3.72;;;11.60;99.90;;;;;;5001351;28;20116;-89
2022/01/03 09:15:46;;;;;;;17.23;3.47;;;11.60;99.90;;;;;;5016683;28;20030;-88
2022/01/03 09:18:12;;;;;;;29.35;5.03;;;11.60;99.90;;;;;;5032222;28;20031;-88
2022/01/03 09:24:29;;;;;;;20.70;3.80;;;11.60;99.90;;;;;;5069828;28;20043;-87
2022/01/03 09:29:40;;;;;;;16.13;3.58;;;11.60;99.90;;;;;;5040879;28;20037;-88
2022/01/03 09:32:06;;;;;;;18.35;3.38;;;11.60;99.90;;;;;;5019700;28;20033;-87
2022/01/03 09:34:32;;;;;;;22.40;3.88;;;11.60;99.90;;;;;;5018094;28;20034;-88
2022/01/03 09:36:58;;;;;;;18.48;2.95;;;11.60;99.90;;;;;;5032002;28;20033;-86
2022/01/03 09:39:23;;;;;;;18.38;3.42;;;11.60;99.90;;;;;;5011576;28;20054;-87
2022/01/03 09:41:59;;;;;;;21.70;4.00;;;11.60;99.90;;;;;;4997258;28;20058;-86
2022/01/03 09:44:30;;;;;;;26.65;4.28;;;11.60;99.90;;;;;;5016574;28;20058;-87
2022/01/03 09:47:06;;;;;;;17.40;3.80;;;11.60;99.90;;;;;;4999922;28;20049;-89
2022/01/03 09:49:40;;;;;;;21.58;4.95;;;11.60;99.90;;;;;;5018718;28;20055;-87
2022/01/03 09:52:10;;;;;;;19.08;3.67;;;11.60;99.90;;;;;;5018661;28;20014;-87
2022/01/03 09:54:37;;;;;;;17.00;4.25;;;11.60;99.90;;;;;;5000082;28;20025;-89
2022/01/03 09:57:04;;;;;;;23.15;4.10;;;11.60;99.90;;;;;;5015247;28;20053;-86
2022/01/03 09:59:31;;;;;;;18.73;3.80;;;11.60;99.90;;;;;;5030359;28;20378;-87
2022/01/03 10:01:58;;;;;;;17.17;3.55;;;11.60;99.90;;;;;;4996475;28;20022;-86
2022/01/03 10:04:24;;;;;;;20.02;3.78;;;11.60;99.90;;;;;;5000940;28;20040;-86
2022/01/03 10:06:51;;;;;;;22.85;3.97;;;11.60;99.90;;;;;;5010577;28;20034;-87
2022/01/03 10:09:19;;;;;;;25.25;4.07;;;11.60;99.90;;;;;;5016716;28;20481;-86
2022/01/03 10:11:45;;;;;;;19.15;3.67;;;11.60;99.90;;;;;;5033990;28;20527;-86
2022/01/03 10:14:13;;;;;;;22.40;4.45;;;11.60;99.90;;;;;;5018685;28;20079;-86
2022/01/03 10:16:44;;;;;;;28.65;4.63;;;11.60;99.90;;;;;;5016567;28;20485;-86
2022/01/03 10:19:10;;;;;;;21.05;3.78;;;11.60;99.90;;;;;;5000177;28;20029;-86
2022/01/03 10:21:37;;;;;;;18.60;3.63;;;11.60;99.90;;;;;;4999956;28;20034;-86
2022/01/03 10:24:04;;;;;;;18.30;3.35;;;11.60;99.90;;;;;;5033872;28;20084;-89
2022/01/03 10:26:30;;;;;;;26.27;4.35;;;11.60;99.90;;;;;;5019549;28;20021;-89
2022/01/03 10:29:22;;;;;;;22.05;3.55;;;11.60;99.90;;;;;;5038051;28;20041;-87
2022/01/03 10:31:52;;;;;;;24.02;4.53;;;11.60;99.90;;;;;;5020751;28;20521;-87
2022/01/03 10:34:23;;;;;;;22.58;3.83;;;11.60;99.90;;;;;;5020501;28;20124;-91
2022/01/03 10:36:49;;;;;;;22.77;5.05;;;11.60;99.90;;;;;;5020341;28;20026;-87
2022/01/03 10:39:20;;;;;;;20.73;4.18;;;11.60;99.90;;;;;;5020204;28;20107;-88
2022/01/03 10:41:48;;;;;;;20.95;3.53;;;11.60;99.90;;;;;;5037654;28;20022;-88
2022/01/03 10:44:40;;;;;;;18.55;3.45;;;11.70;99.90;;;;;;5020294;28;20386;-87
2022/01/03 10:47:08;;;;;;;21.10;4.28;;;11.70;99.90;;;;;;5017394;28;20042;-87
2022/01/03 10:49:35;;;;;;;21.35;3.80;;;11.70;99.90;;;;;;5000113;28;20022;-85
2022/01/03 10:52:18;;;;;;;20.48;3.72;;;11.80;99.90;;;;;;4998991;28;20115;-84
2022/01/03 10:55:06;;;;;;;19.02;3.70;;;11.80;99.90;;;;;;4999259;28;20029;-86
2022/01/03 10:57:54;;;;;;;19.63;4.05;;;11.90;99.90;;;;;;5016840;28;20033;-86
2022/01/03 11:00:39;;;;;;;22.17;4.22;;;11.90;99.90;;;;;;5015541;28;20025;-86
2022/01/03 11:03:18;;;;;;;20.48;4.00;;;12.00;99.90;;;;;;4999705;28;20075;-87
2022/01/03 11:05:51;;;;;;;20.60;4.13;;;12.00;99.90;;;;;;5016972;28;20030;-91
2022/01/03 11:11:02;;;;;;;19.65;3.88;;;12.00;99.90;;;;;;5040197;28;20133;-85
2022/01/03 11:13:28;;;;;;;21.10;3.78;;;12.00;99.90;;;;;;5020148;28;20025;-87
2022/01/03 11:15:56;;;;;;;18.88;3.50;;;12.00;99.90;;;;;;5003068;28;20043;-90
2022/01/03 11:18:24;;;;;;;22.10;4.15;;;11.90;99.90;;;;;;5019189;28;20397;-87
2022/01/03 11:21:13;;;;;;;23.98;5.30;;;12.00;99.90;;;;;;5018472;28;20029;-87
2022/01/03 11:23:45;;;;;;;18.83;4.13;;;12.00;99.90;;;;;;5010303;28;20049;-88
2022/01/03 11:26:12;;;;;;;22.25;3.97;;;12.00;99.90;;;;;;5018297;28;20022;-88
2022/01/03 11:28:39;;;;;;;22.33;3.92;;;12.00;99.90;;;;;;5036557;28;20025;-87
2022/01/03 11:31:06;;;;;;;21.02;3.58;;;12.10;99.90;;;;;;5019002;28;20035;-87
2022/01/03 11:33:34;;;;;;;24.38;4.03;;;12.10;99.90;;;;;;5002979;28;20036;-88
2022/01/03 11:36:01;;;;;;;23.48;3.95;;;12.20;99.90;;;;;;5018758;28;20022;-88
2022/01/03 11:38:30;;;;;;;15.65;3.25;;;12.20;99.90;;;;;;5001844;28;20098;-88
2022/01/03 11:41:04;;;;;;;17.88;3.20;;;12.30;99.90;;;;;;5003364;28;20111;-91
2022/01/03 11:43:48;;;;;;;22.30;3.80;;;12.30;99.90;;;;;;5000521;28;20061;-90
2022/01/03 11:46:18;;;;;;;21.35;3.70;;;12.30;99.90;;;;;;4999609;28;20065;-90
2022/01/03 11:48:53;;;;;;;22.15;4.55;;;12.40;99.90;;;;;;4999806;28;20115;-90
2022/01/03 11:51:20;;;;;;;15.27;3.42;;;12.30;99.90;;;;;;5000185;28;20018;-90
2022/01/03 11:53:51;;;;;;;22.77;4.53;;;12.30;99.90;;;;;;5016913;28;20018;-89
2022/01/03 11:56:28;;;;;;;17.20;3.40;;;12.40;99.90;;;;;;5000675;28;20034;-93
2022/01/03 11:59:23;;;;;;;20.58;4.07;;;12.40;99.90;;;;;;5016577;28;20553;-88
2022/01/03 12:11:53;;;;;;;24.45;4.15;;;12.30;99.90;;;;;;5018453;28;20029;-89
2022/01/03 12:17:44;;;;;;;;;;;12.30;99.90;;;;;;4956755;28;20074;-89
2022/01/03 12:20:14;;;;;;;20.90;3.92;;;12.30;99.90;;;;;;4939893;29;19907;-89
2022/01/03 12:23:02;;;;;;;17.52;3.67;;;12.20;99.90;;;;;;4940534;29;20032;-89
2022/01/03 12:25:31;;;;;;;18.35;4.55;;;12.20;99.90;;;;;;4940315;29;20039;-89
2022/01/03 12:31:53;;;;;;;20.40;4.22;;;12.20;99.90;;;;;;4899769;29;20092;-89
2022/01/03 12:38:34;;;;;;;19.27;3.65;;;12.20;99.90;;;;;;4956266;29;20113;-90
2022/01/03 12:48:09;;;;;;;20.33;4.13;;;12.10;99.90;;;;;;5015762;28;20041;-91
2022/01/03 12:58:23;;;;;;;16.23;3.30;;;12.10;99.90;;;;;;5015726;28;20029;-90
2022/01/03 13:05:04;;;;;;;18.02;3.55;;;12.10;99.90;;;;;;5016470;28;20551;-92
2022/01/03 13:11:08;;;;;;;16.92;4.07;;;12.10;99.90;;;;;;5036793;28;20037;-89
2022/01/03 13:13:35;;;;;;;15.15;3.40;;;12.20;99.90;;;;;;5037836;28;20020;-94
2022/01/03 13:16:17;;;;;;;13.23;2.80;;;12.20;99.90;;;;;;5019932;28;20006;-94
2022/01/03 13:19:12;;;;;;;15.30;3.17;;;12.20;99.90;;;;;;5017951;28;20073;-90
2022/01/03 13:22:05;;;;;;;13.27;3.55;;;12.20;99.90;;;;;;5011603;28;20026;-94
2022/01/03 13:24:46;;;;;;;;;;;;;;;;;;;;;
2022/01/03 13:27:22;;;;;;;15.43;2.97;;;12.20;99.90;;;;;;5015911;28;20044;-92
2022/01/03 13:30:03;;;;;;;18.92;3.65;;;12.10;99.90;;;;;;4999686;28;20052;-92
2022/01/03 13:32:31;;;;;;;12.85;3.78;;;12.10;99.90;;;;;;4997696;28;20466;-84
2022/01/03 13:35:00;;;;;;;16.42;2.70;;;12.20;99.90;;;;;;4997015;28;20470;-88
2022/01/03 13:37:29;;;;;;;15.25;3.00;;;12.20;99.90;;;;;;5015397;28;20091;-88
2022/01/03 13:39:57;;;;;;;13.57;2.80;;;12.20;99.90;;;;;;4997757;28;20034;-88
2022/01/03 13:50:49;;;;;;;12.45;2.85;;;12.20;99.90;;;;;;5034777;28;20067;-88
2022/01/03 13:53:15;;;;;;;13.90;3.05;;;12.20;99.90;;;;;;5017141;28;20026;-88
2022/01/03 13:55:41;;;;;;;11.90;3.20;;;12.20;99.90;;;;;;5017029;28;20098;-88
2022/01/03 13:58:15;;;;;;;15.90;3.67;;;12.20;99.90;;;;;;5034507;28;20184;-88
2022/01/03 14:00:55;;;;;;;12.68;3.75;;;12.10;99.90;;;;;;5017492;28;20085;-88
2022/01/03 14:03:24;;;;;;;14.85;3.47;;;12.10;99.90;;;;;;5017327;28;20017;-90
2022/01/03 14:05:50;;;;;;;17.42;3.40;;;12.10;99.90;;;;;;5016979;28;20385;-88
2022/01/03 14:08:19;;;;;;;16.67;3.20;;;12.10;99.90;;;;;;5017066;28;20180;-88
2022/01/03 14:10:47;;;;;;;13.85;3.40;;;12.10;99.90;;;;;;5033925;28;20078;-87
2022/01/03 14:13:21;;;;;;;13.85;3.22;;;12.10;99.90;;;;;;5016614;28;20025;-87
2022/01/03 14:16:08;;;;;;;13.20;2.88;;;12.00;99.90;;;;;;5034143;28;20026;-88
2022/01/03 14:18:44;;;;;;;10.18;3.22;;;12.00;99.90;;;;;;5034223;28;20068;-88
2022/01/03 14:21:11;;;;;;;11.57;2.45;;;12.00;99.90;;;;;;5016445;28;20021;-88
2022/01/03 14:23:47;;;;;;;13.20;2.90;;;12.00;99.90;;;;;;5034173;28;20021;-88
2022/01/03 14:29:38;;;;;;;12.50;2.70;;;12.00;99.90;;;;;;5034310;28;20080;-88
2022/01/03 14:32:15;;;;;;;8.10;2.22;;;12.00;99.90;;;;;;5016167;28;20064;-88
2022/01/03 14:34:53;;;;;;;15.00;2.92;;;12.10;99.90;;;;;;5016877;28;20021;-88
2022/01/03 14:37:27;;;;;;;10.95;2.72;;;12.00;99.90;;;;;;5034886;28;20028;-87
2022/01/03 14:39:57;;;;;;;8.23;2.15;;;12.00;99.90;;;;;;5017251;28;20095;-88
2022/01/03 14:42:36;;;;;;;10.77;2.65;;;12.00;99.90;;;;;;5016928;28;20075;-88
2022/01/03 14:48:40;;;;;;;10.05;2.40;;;12.00;99.90;;;;;;5034298;28;20060;-89
2022/01/03 14:51:11;;;;;;;9.93;2.30;;;12.00;99.90;;;;;;5016371;28;20038;-89
2022/01/03 14:53:38;;;;;;;8.13;2.80;;;12.00;99.90;;;;;;5016522;28;20026;-89
2022/01/03 14:56:41;;;;;;;13.05;2.10;;;12.00;99.90;;;;;;5016778;28;20025;-87
2022/01/03 14:59:27;;;;;;;9.23;2.65;;;12.00;99.90;;;;;;5006292;28;20466;-87
2022/01/03 15:01:56;;;;;;;9.65;2.70;;;12.00;99.90;;;;;;5019428;28;20029;-87
2022/01/03 15:04:34;;;;;;;;;;;;;;;;;;;;;
2022/01/03 15:07:15;;;;;;;10.13;2.03;;;12.00;99.90;;;;;;5034011;28;20026;-87
2022/01/03 15:09:44;;;;;;;9.23;2.63;;;12.00;99.90;;;;;;5016650;28;20057;-87
2022/01/03 15:12:10;;;;;;;9.23;2.55;;;12.00;99.90;;;;;;5035939;28;20470;-88
2022/01/03 15:14:36;;;;;;;11.35;2.35;;;12.00;99.90;;;;;;5020291;28;20033;-87
2022/01/03 15:17:05;;;;;;;7.93;2.35;;;12.00;99.90;;;;;;5020001;28;20052;-87
2022/01/03 15:19:44;;;;;;;;;;;;;;;;;;;;;
2022/01/03 15:22:10;;;;;;;10.80;2.47;;;12.00;99.90;;;;;;5037118;28;20026;-92
2022/01/03 15:24:39;;;;;;;6.75;1.80;;;12.00;99.90;;;;;;5019557;28;20108;-89
2022/01/03 15:27:14;;;;;;;8.85;1.80;;;12.00;99.90;;;;;;5003301;28;20059;-87
2022/01/03 15:30:00;;;;;;;8.82;1.98;;;12.00;99.90;;;;;;5020436;28;20052;-87
2022/01/03 15:32:28;;;;;;;11.52;2.40;;;12.00;99.90;;;;;;5019531;28;20049;-87
2022/01/03 15:34:59;;;;;;;8.82;2.38;;;12.00;99.90;;;;;;5020279;28;20462;-86
2022/01/03 15:37:27;;;;;;;;;;;12.00;99.90;;;;;;5020590;28;20021;-87
2022/01/03 15:40:04;;;;;;;9.27;2.30;;;11.90;99.90;;;;;;5019415;28;19905;-89
2022/01/03 15:42:30;;;;;;;9.40;1.90;;;11.90;99.90;;;;;;5019574;28;20036;-86
2022/01/03 15:44:56;;;;;;;9.60;1.75;;;11.90;99.90;;;;;;5019229;28;20117;-85
2022/01/03 15:47:24;;;;;;;8.63;2.60;;;11.90;99.90;;;;;;5020013;28;20124;-86
2022/01/03 15:49:50;;;;;;;5.85;2.20;;;11.90;99.90;;;;;;5020580;28;20030;-87
2022/01/03 15:52:27;;;;;;;10.15;2.40;;;11.90;99.90;;;;;;5021875;28;20032;-85
2022/01/03 15:55:00;;;;;;;15.00;2.25;;;11.90;99.90;;;;;;5009117;28;20033;-87
2022/01/03 15:57:26;;;;;;;9.93;1.77;;;11.90;99.90;;;;;;5018660;28;20131;-86
2022/01/03 15:59:54;;;;;;;8.57;1.80;;;11.80;99.90;;;;;;5018974;28;20033;-86
2022/01/03 16:02:27;;;;;;;8.73;2.97;;;11.80;99.90;;;;;;5019235;28;20022;-86
2022/01/03 16:04:55;;;;;;;8.45;1.55;;;11.80;99.90;;;;;;5019086;28;20040;-85
2022/01/03 16:07:30;;;;;;;6.82;1.30;;;11.80;99.90;;;;;;5004106;28;20036;-88
2022/01/03 16:09:56;;;;;;;6.13;1.95;;;11.80;99.90;;;;;;5006395;28;20120;-87
2022/01/03 16:12:25;;;;;;;6.57;1.38;;;11.80;99.90;;;;;;5034169;28;20028;-88
2022/01/03 16:14:52;;;;;;;7.32;1.70;;;11.80;99.90;;;;;;5057508;28;20045;-87
2022/01/03 16:17:19;;;;;;;6.00;1.90;;;11.80;99.90;;;;;;5047748;28;20034;-87
2022/01/03 16:19:52;;;;;;;8.13;2.03;;;11.80;99.90;;;;;;5019876;28;20469;-89
2022/01/03 16:22:18;;;;;;;7.80;1.70;;;11.80;99.90;;;;;;5019724;28;20029;-89
2022/01/03 16:24:45;;;;;;;7.07;2.03;;;11.80;99.90;;;;;;5019158;28;20021;-89
2022/01/03 16:27:10;;;;;;;7.15;1.83;;;11.70;99.90;;;;;;5036813;28;20033;-89
2022/01/03 16:29:56;;;;;;;6.75;1.73;;;11.70;99.90;;;;;;5019202;28;20029;-91
2022/01/03 16:32:22;;;;;;;5.75;1.70;;;11.70;99.90;;;;;;5003136;28;20095;-87
2022/01/03 16:34:50;;;;;;;6.03;1.58;;;11.70;99.90;;;;;;5018651;28;20454;-89
2022/01/03 16:37:18;;;;;;;6.82;1.83;;;11.70;99.90;;;;;;5018850;28;20477;-88
2022/01/03 16:39:52;;;;;;;7.85;1.70;;;11.60;99.90;;;;;;5001748;28;20363;-88
2022/01/03 16:42:22;;;;;;;11.38;2.90;;;11.60;99.90;;;;;;5028038;28;20028;-86
2022/01/03 16:44:53;;;;;;;6.32;1.98;;;11.60;99.90;;;;;;5018305;28;20049;-87
2022/01/03 16:47:25;;;;;;;8.43;2.63;;;11.60;99.90;;;;;;5018504;28;20079;-89
2022/01/03 16:49:51;;;;;;;8.45;1.65;;;11.50;99.90;;;;;;5036254;28;20053;-87
2022/01/03 16:52:20;;;;;;;12.57;3.20;;;11.50;99.90;;;;;;5018283;28;20465;-90
2022/01/03 16:54:46;;;;;;;6.68;2.03;;;11.50;99.90;;;;;;5036051;28;20084;-91